sensor_id;sensor_type;location;lat;lon;timestamp;P1;durP1;ratioP1;P2;durP2;ratioP2
10582;SDS011;33679;51.218;6.786;2024-01-11T00:04:52;19.70;;;10.60;;
10582;SDS011;33679;51.218;6.786;2024-01-11T00:22:39;21.60;;;10.37;;
10582;SDS011;33679;51.218;6.786;2024-01-11T00:25:29;23.13;;;10.67;;
10582;SDS011;33679;51.218;6.786;2024-01-11T00:47:49;28.23;;;12.73;;
10582;SDS011;33679;51.218;6.786;2024-01-11T00:50:26;21.93;;;11.10;;
10582;SDS011;33679;51.218;6.786;2024-01-11T00:53:21;27.97;;;12.30;;
10582;SDS011;33679;51.218;6.786;2024-01-11T01:15:56;30.40;;;12.93;;
10582;SDS011;33679;51.218;6.786;2024-01-11T01:22:29;19.20;;;11.60;;
10582;SDS011;33679;51.218;6.786;2024-01-11T01:25:22;28.60;;;11.20;;
10582;SDS011;33679;51.218;6.786;2024-01-11T02:02:22;23.60;;;12.87;;
10582;SDS011;33679;51.218;6.786;2024-01-11T02:04:54;22.30;;;11.17;;
10582;SDS011;33679;51.218;6.786;2024-01-11T02:07:30;20.07;;;11.73;;
10582;SDS011;33679;51.218;6.786;2024-01-11T02:26:03;23.90;;;13.20;;
10582;SDS011;33679;51.218;6.786;2024-01-11T02:43:36;22.03;;;12.27;;
10582;SDS011;33679;51.218;6.786;2024-01-11T02:46:59;25.23;;;13.33;;
10582;SDS011;33679;51.218;6.786;2024-01-11T02:49:32;25.60;;;12.10;;
10582;SDS011;33679;51.218;6.786;2024-01-11T02:52:05;24.20;;;13.67;;
10582;SDS011;33679;51.218;6.786;2024-01-11T02:54:38;29.43;;;13.80;;
10582;SDS011;33679;51.218;6.786;2024-01-11T02:57:15;26.77;;;13.00;;
10582;SDS011;33679;51.218;6.786;2024-01-11T04:10:00;28.50;;;15.57;;
10582;SDS011;33679;51.218;6.786;2024-01-11T04:12:33;35.63;;;16.17;;
10582;SDS011;33679;51.218;6.786;2024-01-11T04:15:07;32.57;;;15.83;;
10582;SDS011;33679;51.218;6.786;2024-01-11T04:17:40;30.57;;;16.10;;
10582;SDS011;33679;51.218;6.786;2024-01-11T04:20:15;32.40;;;15.20;;
10582;SDS011;33679;51.218;6.786;2024-01-11T04:22:48;34.67;;;15.27;;
10582;SDS011;33679;51.218;6.786;2024-01-11T04:29:25;30.47;;;15.87;;
10582;SDS011;33679;51.218;6.786;2024-01-11T04:31:59;27.53;;;14.73;;
10582;SDS011;33679;51.218;6.786;2024-01-11T04:34:32;36.37;;;16.83;;
10582;SDS011;33679;51.218;6.786;2024-01-11T04:37:05;31.17;;;14.40;;
10582;SDS011;33679;51.218;6.786;2024-01-11T04:39:45;31.57;;;15.77;;
10582;SDS011;33679;51.218;6.786;2024-01-11T04:42:57;26.17;;;14.20;;
10582;SDS011;33679;51.218;6.786;2024-01-11T04:45:32;31.43;;;15.90;;
10582;SDS011;33679;51.218;6.786;2024-01-11T04:48:05;31.37;;;14.67;;
10582;SDS011;33679;51.218;6.786;2024-01-11T04:50:40;32.87;;;17.33;;
10582;SDS011;33679;51.218;6.786;2024-01-11T04:53:14;34.20;;;15.87;;
10582;SDS011;33679;51.218;6.786;2024-01-11T04:56:07;30.37;;;16.20;;
10582;SDS011;33679;51.218;6.786;2024-01-11T05:03:22;25.60;;;15.53;;
10582;SDS011;33679;51.218;6.786;2024-01-11T05:06:03;30.87;;;15.93;;
10582;SDS011;33679;51.218;6.786;2024-01-11T05:08:36;32.60;;;16.33;;
10582;SDS011;33679;51.218;6.786;2024-01-11T05:11:14;25.17;;;14.20;;
10582;SDS011;33679;51.218;6.786;2024-01-11T05:13:48;28.60;;;14.40;;
10582;SDS011;33679;51.218;6.786;2024-01-11T05:16:24;26.10;;;14.27;;
10582;SDS011;33679;51.218;6.786;2024-01-11T05:18:59;34.87;;;15.80;;
10582;SDS011;33679;51.218;6.786;2024-01-11T05:28:22;31.63;;;15.77;;
10582;SDS011;33679;51.218;6.786;2024-01-11T05:30:55;30.40;;;15.53;;
10582;SDS011;33679;51.218;6.786;2024-01-11T05:33:29;32.60;;;15.20;;
10582;SDS011;33679;51.218;6.786;2024-01-11T05:36:04;30.00;;;14.17;;
10582;SDS011;33679;51.218;6.786;2024-01-11T05:38:37;29.73;;;14.67;;
10582;SDS011;33679;51.218;6.786;2024-01-11T05:41:10;27.93;;;15.97;;
10582;SDS011;33679;51.218;6.786;2024-01-11T05:43:43;30.07;;;16.83;;
10582;SDS011;33679;51.218;6.786;2024-01-11T05:46:16;32.57;;;16.20;;
10582;SDS011;33679;51.218;6.786;2024-01-11T05:48:53;27.13;;;14.20;;
10582;SDS011;33679;51.218;6.786;2024-01-11T05:51:27;35.10;;;17.83;;
10582;SDS011;33679;51.218;6.786;2024-01-11T05:53:59;30.00;;;14.80;;
10582;SDS011;33679;51.218;6.786;2024-01-11T05:56:33;30.93;;;16.33;;
10582;SDS011;33679;51.218;6.786;2024-01-11T05:59:05;36.83;;;16.10;;
10582;SDS011;33679;51.218;6.786;2024-01-11T06:01:41;30.57;;;14.80;;
10582;SDS011;33679;51.218;6.786;2024-01-11T06:04:51;30.97;;;15.30;;
10582;SDS011;33679;51.218;6.786;2024-01-11T06:07:26;33.27;;;16.40;;
10582;SDS011;33679;51.218;6.786;2024-01-11T06:09:58;27.37;;;15.80;;
10582;SDS011;33679;51.218;6.786;2024-01-11T06:12:35;37.37;;;16.90;;
10582;SDS011;33679;51.218;6.786;2024-01-11T06:15:09;34.37;;;17.10;;
10582;SDS011;33679;51.218;6.786;2024-01-11T06:17:41;34.20;;;17.70;;
10582;SDS011;33679;51.218;6.786;2024-01-11T06:20:14;32.40;;;15.80;;
10582;SDS011;33679;51.218;6.786;2024-01-11T06:22:48;29.83;;;15.73;;
10582;SDS011;33679;51.218;6.786;2024-01-11T06:25:20;35.97;;;17.03;;
10582;SDS011;33679;51.218;6.786;2024-01-11T06:27:53;25.40;;;14.90;;
10582;SDS011;33679;51.218;6.786;2024-01-11T06:30:26;33.20;;;16.37;;
10582;SDS011;33679;51.218;6.786;2024-01-11T06:32:58;33.67;;;16.40;;
10582;SDS011;33679;51.218;6.786;2024-01-11T06:35:33;36.40;;;16.60;;
10582;SDS011;33679;51.218;6.786;2024-01-11T06:38:09;36.87;;;17.10;;
10582;SDS011;33679;51.218;6.786;2024-01-11T06:40:42;36.80;;;16.50;;
10582;SDS011;33679;51.218;6.786;2024-01-11T06:43:15;33.93;;;16.50;;
10582;SDS011;33679;51.218;6.786;2024-01-11T06:45:53;33.87;;;16.90;;
10582;SDS011;33679;51.218;6.786;2024-01-11T06:48:25;31.70;;;16.53;;
10582;SDS011;33679;51.218;6.786;2024-01-11T06:50:58;28.03;;;14.90;;
10582;SDS011;33679;51.218;6.786;2024-01-11T06:53:32;32.93;;;16.90;;
10582;SDS011;33679;51.218;6.786;2024-01-11T06:56:12;34.07;;;16.37;;
10582;SDS011;33679;51.218;6.786;2024-01-11T06:58:45;33.83;;;18.23;;
10582;SDS011;33679;51.218;6.786;2024-01-11T07:01:19;28.83;;;16.17;;
10582;SDS011;33679;51.218;6.786;2024-01-11T07:03:53;30.00;;;16.47;;
10582;SDS011;33679;51.218;6.786;2024-01-11T07:06:26;27.57;;;15.27;;
10582;SDS011;33679;51.218;6.786;2024-01-11T07:09:00;36.03;;;17.17;;
10582;SDS011;33679;51.218;6.786;2024-01-11T07:11:33;31.30;;;16.50;;
10582;SDS011;33679;51.218;6.786;2024-01-11T07:14:08;29.07;;;15.77;;
10582;SDS011;33679;51.218;6.786;2024-01-11T07:16:41;31.37;;;15.73;;
10582;SDS011;33679;51.218;6.786;2024-01-11T07:19:13;28.23;;;16.03;;
10582;SDS011;33679;51.218;6.786;2024-01-11T07:21:46;35.30;;;17.73;;
10582;SDS011;33679;51.218;6.786;2024-01-11T07:24:22;41.03;;;17.80;;
10582;SDS011;33679;51.218;6.786;2024-01-11T07:26:54;29.80;;;16.87;;
10582;SDS011;33679;51.218;6.786;2024-01-11T07:29:27;34.23;;;17.93;;
10582;SDS011;33679;51.218;6.786;2024-01-11T07:32:00;41.47;;;16.63;;
10582;SDS011;33679;51.218;6.786;2024-01-11T07:34:36;28.50;;;15.73;;
10582;SDS011;33679;51.218;6.786;2024-01-11T07:37:09;32.33;;;16.07;;
10582;SDS011;33679;51.218;6.786;2024-01-11T07:39:45;31.33;;;17.30;;
10582;SDS011;33679;51.218;6.786;2024-01-11T07:42:17;32.70;;;17.13;;
10582;SDS011;33679;51.218;6.786;2024-01-11T07:44:52;31.00;;;16.57;;
10582;SDS011;33679;51.218;6.786;2024-01-11T07:47:25;33.80;;;18.80;;
10582;SDS011;33679;51.218;6.786;2024-01-11T07:49:59;32.13;;;19.00;;
10582;SDS011;33679;51.218;6.786;2024-01-11T07:52:33;35.90;;;16.90;;
10582;SDS011;33679;51.218;6.786;2024-01-11T07:55:11;29.93;;;18.00;;
10582;SDS011;33679;51.218;6.786;2024-01-11T07:57:49;37.70;;;18.90;;
10582;SDS011;33679;51.218;6.786;2024-01-11T08:00:22;31.80;;;16.47;;
10582;SDS011;33679;51.218;6.786;2024-01-11T08:02:55;36.17;;;17.13;;
10582;SDS011;33679;51.218;6.786;2024-01-11T08:05:28;35.30;;;17.63;;
10582;SDS011;33679;51.218;6.786;2024-01-11T08:08:02;35.07;;;18.03;;
10582;SDS011;33679;51.218;6.786;2024-01-11T08:10:38;37.70;;;16.73;;
10582;SDS011;33679;51.218;6.786;2024-01-11T08:13:10;28.53;;;14.80;;
10582;SDS011;33679;51.218;6.786;2024-01-11T08:15:44;38.23;;;16.60;;
10582;SDS011;33679;51.218;6.786;2024-01-11T08:18:18;41.30;;;17.17;;
10582;SDS011;33679;51.218;6.786;2024-01-11T08:20:53;28.20;;;15.43;;
10582;SDS011;33679;51.218;6.786;2024-01-11T08:23:27;28.10;;;14.63;;
10582;SDS011;33679;51.218;6.786;2024-01-11T08:26:01;40.60;;;17.40;;
10582;SDS011;33679;51.218;6.786;2024-01-11T08:28:35;31.40;;;16.90;;
10582;SDS011;33679;51.218;6.786;2024-01-11T08:31:09;28.80;;;16.03;;
10582;SDS011;33679;51.218;6.786;2024-01-11T08:33:43;30.77;;;17.03;;
10582;SDS011;33679;51.218;6.786;2024-01-11T08:36:15;31.03;;;15.23;;
10582;SDS011;33679;51.218;6.786;2024-01-11T08:38:51;30.70;;;17.33;;
10582;SDS011;33679;51.218;6.786;2024-01-11T08:41:30;32.53;;;15.70;;
10582;SDS011;33679;51.218;6.786;2024-01-11T08:44:07;34.53;;;17.97;;
10582;SDS011;33679;51.218;6.786;2024-01-11T08:46:40;36.30;;;18.97;;
10582;SDS011;33679;51.218;6.786;2024-01-11T08:49:20;37.53;;;19.03;;
10582;SDS011;33679;51.218;6.786;2024-01-11T08:51:57;33.87;;;17.60;;
10582;SDS011;33679;51.218;6.786;2024-01-11T08:54:32;32.90;;;16.17;;
10582;SDS011;33679;51.218;6.786;2024-01-11T08:57:26;32.60;;;18.00;;
10582;SDS011;33679;51.218;6.786;2024-01-11T09:00:05;35.43;;;16.47;;
10582;SDS011;33679;51.218;6.786;2024-01-11T09:02:52;36.20;;;17.90;;
10582;SDS011;33679;51.218;6.786;2024-01-11T09:05:24;35.10;;;16.83;;
10582;SDS011;33679;51.218;6.786;2024-01-11T09:08:10;33.47;;;16.77;;
10582;SDS011;33679;51.218;6.786;2024-01-11T09:10:47;38.10;;;17.33;;
10582;SDS011;33679;51.218;6.786;2024-01-11T09:13:24;32.50;;;18.07;;
10582;SDS011;33679;51.218;6.786;2024-01-11T09:16:00;34.83;;;16.07;;
10582;SDS011;33679;51.218;6.786;2024-01-11T09:18:42;55.80;;;23.77;;
10582;SDS011;33679;51.218;6.786;2024-01-11T09:21:16;33.97;;;18.37;;
10582;SDS011;33679;51.218;6.786;2024-01-11T09:24:00;34.87;;;17.47;;
10582;SDS011;33679;51.218;6.786;2024-01-11T09:26:37;35.33;;;18.80;;
10582;SDS011;33679;51.218;6.786;2024-01-11T09:29:11;37.10;;;17.13;;
10582;SDS011;33679;51.218;6.786;2024-01-11T09:31:54;31.77;;;15.83;;
10582;SDS011;33679;51.218;6.786;2024-01-11T09:34:56;32.50;;;17.00;;
10582;SDS011;33679;51.218;6.786;2024-01-11T09:37:35;36.73;;;16.10;;
10582;SDS011;33679;51.218;6.786;2024-01-11T09:40:22;33.00;;;16.73;;
10582;SDS011;33679;51.218;6.786;2024-01-11T09:42:55;30.80;;;16.83;;
10582;SDS011;33679;51.218;6.786;2024-01-11T09:45:39;34.07;;;16.73;;
10582;SDS011;33679;51.218;6.786;2024-01-11T09:48:16;30.93;;;16.87;;
10582;SDS011;33679;51.218;6.786;2024-01-11T09:50:54;36.67;;;17.67;;
10582;SDS011;33679;51.218;6.786;2024-01-11T09:53:32;33.10;;;17.63;;
10582;SDS011;33679;51.218;6.786;2024-01-11T09:56:08;33.10;;;16.47;;
10582;SDS011;33679;51.218;6.786;2024-01-11T09:58:46;31.07;;;15.97;;
10582;SDS011;33679;51.218;6.786;2024-01-11T10:01:22;33.10;;;16.77;;
10582;SDS011;33679;51.218;6.786;2024-01-11T10:03:57;30.90;;;15.53;;
10582;SDS011;33679;51.218;6.786;2024-01-11T10:06:42;29.27;;;15.10;;
10582;SDS011;33679;51.218;6.786;2024-01-11T10:09:18;31.23;;;15.77;;
10582;SDS011;33679;51.218;6.786;2024-01-11T10:11:54;32.87;;;16.90;;
10582;SDS011;33679;51.218;6.786;2024-01-11T10:14:28;36.63;;;17.03;;
10582;SDS011;33679;51.218;6.786;2024-01-11T10:17:04;27.47;;;15.53;;
10582;SDS011;33679;51.218;6.786;2024-01-11T10:19:39;29.37;;;15.80;;
10582;SDS011;33679;51.218;6.786;2024-01-11T10:22:11;33.57;;;16.17;;
10582;SDS011;33679;51.218;6.786;2024-01-11T10:24:48;31.53;;;16.50;;
10582;SDS011;33679;51.218;6.786;2024-01-11T10:27:23;35.33;;;17.90;;
10582;SDS011;33679;51.218;6.786;2024-01-11T10:29:59;34.77;;;18.13;;
10582;SDS011;33679;51.218;6.786;2024-01-11T10:32:33;32.27;;;16.00;;
10582;SDS011;33679;51.218;6.786;2024-01-11T10:35:06;44.83;;;18.13;;
10582;SDS011;33679;51.218;6.786;2024-01-11T10:37:40;34.27;;;16.83;;
10582;SDS011;33679;51.218;6.786;2024-01-11T10:40:16;49.83;;;20.20;;
10582;SDS011;33679;51.218;6.786;2024-01-11T10:42:59;37.57;;;18.60;;
10582;SDS011;33679;51.218;6.786;2024-01-11T10:45:34;40.03;;;19.03;;
10582;SDS011;33679;51.218;6.786;2024-01-11T10:48:12;38.83;;;18.03;;
10582;SDS011;33679;51.218;6.786;2024-01-11T10:50:49;35.90;;;18.50;;
10582;SDS011;33679;51.218;6.786;2024-01-11T10:53:28;39.53;;;18.60;;
10582;SDS011;33679;51.218;6.786;2024-01-11T10:56:08;43.37;;;19.53;;
10582;SDS011;33679;51.218;6.786;2024-01-11T10:58:44;34.70;;;17.50;;
10582;SDS011;33679;51.218;6.786;2024-01-11T11:01:18;32.67;;;16.07;;
10582;SDS011;33679;51.218;6.786;2024-01-11T11:03:56;41.80;;;18.47;;
10582;SDS011;33679;51.218;6.786;2024-01-11T11:06:30;42.07;;;17.20;;
10582;SDS011;33679;51.218;6.786;2024-01-11T11:09:08;32.47;;;17.90;;
10582;SDS011;33679;51.218;6.786;2024-01-11T11:11:48;32.00;;;16.37;;
10582;SDS011;33679;51.218;6.786;2024-01-11T11:14:23;33.30;;;17.87;;
10582;SDS011;33679;51.218;6.786;2024-01-11T11:17:00;31.13;;;16.97;;
10582;SDS011;33679;51.218;6.786;2024-01-11T11:19:34;30.80;;;14.90;;
10582;SDS011;33679;51.218;6.786;2024-01-11T11:22:09;39.97;;;17.40;;
10582;SDS011;33679;51.218;6.786;2024-01-11T11:24:46;34.37;;;15.77;;
10582;SDS011;33679;51.218;6.786;2024-01-11T11:27:18;35.00;;;16.80;;
10582;SDS011;33679;51.218;6.786;2024-01-11T11:29:50;34.30;;;16.77;;
10582;SDS011;33679;51.218;6.786;2024-01-11T11:32:34;30.17;;;15.17;;
10582;SDS011;33679;51.218;6.786;2024-01-11T11:35:12;32.80;;;17.83;;
10582;SDS011;33679;51.218;6.786;2024-01-11T11:37:45;36.13;;;16.33;;
10582;SDS011;33679;51.218;6.786;2024-01-11T11:40:20;37.83;;;18.20;;
10582;SDS011;33679;51.218;6.786;2024-01-11T11:42:55;38.83;;;18.20;;
10582;SDS011;33679;51.218;6.786;2024-01-11T11:45:32;31.00;;;15.50;;
10582;SDS011;33679;51.218;6.786;2024-01-11T11:51:23;33.50;;;16.07;;
10582;SDS011;33679;51.218;6.786;2024-01-11T11:53:58;30.27;;;15.60;;
10582;SDS011;33679;51.218;6.786;2024-01-11T11:56:34;30.67;;;15.37;;
10582;SDS011;33679;51.218;6.786;2024-01-11T11:59:08;47.23;;;17.73;;
10582;SDS011;33679;51.218;6.786;2024-01-11T12:01:41;31.90;;;16.90;;
10582;SDS011;33679;51.218;6.786;2024-01-11T12:04:15;36.50;;;15.60;;
10582;SDS011;33679;51.218;6.786;2024-01-11T12:06:52;29.67;;;14.73;;
10582;SDS011;33679;51.218;6.786;2024-01-11T12:09:27;27.87;;;15.13;;
10582;SDS011;33679;51.218;6.786;2024-01-11T12:12:04;33.83;;;15.20;;
10582;SDS011;33679;51.218;6.786;2024-01-11T12:14:47;37.13;;;15.90;;
10582;SDS011;33679;51.218;6.786;2024-01-11T12:17:20;30.80;;;15.97;;
10582;SDS011;33679;51.218;6.786;2024-01-11T12:19:58;27.50;;;16.07;;
10582;SDS011;33679;51.218;6.786;2024-01-11T12:22:33;34.43;;;17.50;;
10582;SDS011;33679;51.218;6.786;2024-01-11T12:25:06;26.83;;;15.03;;
10582;SDS011;33679;51.218;6.786;2024-01-11T12:27:40;37.43;;;17.00;;
10582;SDS011;33679;51.218;6.786;2024-01-11T12:30:18;31.00;;;16.70;;
10582;SDS011;33679;51.218;6.786;2024-01-11T12:32:54;39.33;;;17.00;;
10582;SDS011;33679;51.218;6.786;2024-01-11T12:35:28;31.03;;;15.80;;
10582;SDS011;33679;51.218;6.786;2024-01-11T12:38:07;32.20;;;16.33;;
10582;SDS011;33679;51.218;6.786;2024-01-11T12:40:42;34.57;;;17.63;;
10582;SDS011;33679;51.218;6.786;2024-01-11T12:43:18;34.50;;;17.17;;
10582;SDS011;33679;51.218;6.786;2024-01-11T12:45:54;39.47;;;19.43;;
10582;SDS011;33679;51.218;6.786;2024-01-11T12:48:28;34.67;;;19.13;;
10582;SDS011;33679;51.218;6.786;2024-01-11T12:51:04;38.50;;;18.33;;
10582;SDS011;33679;51.218;6.786;2024-01-11T12:53:45;33.07;;;17.30;;
10582;SDS011;33679;51.218;6.786;2024-01-11T12:56:20;36.70;;;18.50;;
10582;SDS011;33679;51.218;6.786;2024-01-11T12:59:04;36.23;;;18.60;;
10582;SDS011;33679;51.218;6.786;2024-01-11T13:01:41;33.00;;;16.97;;
10582;SDS011;33679;51.218;6.786;2024-01-11T13:04:22;32.73;;;17.60;;
10582;SDS011;33679;51.218;6.786;2024-01-11T13:06:56;33.93;;;19.90;;
10582;SDS011;33679;51.218;6.786;2024-01-11T13:09:32;33.70;;;18.20;;
10582;SDS011;33679;51.218;6.786;2024-01-11T13:12:06;46.10;;;19.63;;
10582;SDS011;33679;51.218;6.786;2024-01-11T13:14:41;36.33;;;15.57;;
10582;SDS011;33679;51.218;6.786;2024-01-11T13:17:14;32.03;;;17.53;;
10582;SDS011;33679;51.218;6.786;2024-01-11T13:19:47;27.97;;;13.80;;
10582;SDS011;33679;51.218;6.786;2024-01-11T13:22:20;32.77;;;16.80;;
10582;SDS011;33679;51.218;6.786;2024-01-11T13:24:58;25.53;;;13.90;;
10582;SDS011;33679;51.218;6.786;2024-01-11T13:27:37;31.53;;;15.43;;
10582;SDS011;33679;51.218;6.786;2024-01-11T13:30:13;31.87;;;15.47;;
10582;SDS011;33679;51.218;6.786;2024-01-11T13:32:51;30.93;;;15.63;;
10582;SDS011;33679;51.218;6.786;2024-01-11T13:35:23;32.00;;;16.03;;
10582;SDS011;33679;51.218;6.786;2024-01-11T13:37:58;28.70;;;15.40;;
10582;SDS011;33679;51.218;6.786;2024-01-11T13:40:32;29.97;;;14.90;;
10582;SDS011;33679;51.218;6.786;2024-01-11T13:43:06;31.83;;;15.53;;
10582;SDS011;33679;51.218;6.786;2024-01-11T13:45:40;31.40;;;14.50;;
10582;SDS011;33679;51.218;6.786;2024-01-11T13:48:14;30.07;;;14.03;;
10582;SDS011;33679;51.218;6.786;2024-01-11T13:50:48;25.77;;;12.60;;
10582;SDS011;33679;51.218;6.786;2024-01-11T13:53:23;27.60;;;13.43;;
10582;SDS011;33679;51.218;6.786;2024-01-11T13:56:02;28.03;;;13.20;;
10582;SDS011;33679;51.218;6.786;2024-01-11T13:58:37;25.40;;;12.60;;
10582;SDS011;33679;51.218;6.786;2024-01-11T14:01:09;22.83;;;13.03;;
10582;SDS011;33679;51.218;6.786;2024-01-11T14:03:44;28.77;;;14.17;;
10582;SDS011;33679;51.218;6.786;2024-01-11T14:06:20;24.10;;;12.60;;
10582;SDS011;33679;51.218;6.786;2024-01-11T14:08:58;26.00;;;12.97;;
10582;SDS011;33679;51.218;6.786;2024-01-11T14:11:37;24.33;;;11.60;;
10582;SDS011;33679;51.218;6.786;2024-01-11T14:14:14;24.10;;;13.43;;
10582;SDS011;33679;51.218;6.786;2024-01-11T14:16:53;27.40;;;12.10;;
10582;SDS011;33679;51.218;6.786;2024-01-11T14:19:28;23.53;;;13.00;;
10582;SDS011;33679;51.218;6.786;2024-01-11T14:22:01;22.77;;;12.20;;
10582;SDS011;33679;51.218;6.786;2024-01-11T14:24:35;30.10;;;13.00;;
10582;SDS011;33679;51.218;6.786;2024-01-11T14:27:08;23.10;;;11.90;;
10582;SDS011;33679;51.218;6.786;2024-01-11T14:29:44;22.23;;;12.53;;
10582;SDS011;33679;51.218;6.786;2024-01-11T14:32:19;24.60;;;13.10;;
10582;SDS011;33679;51.218;6.786;2024-01-11T14:34:57;20.20;;;11.17;;
10582;SDS011;33679;51.218;6.786;2024-01-11T14:37:37;18.40;;;11.20;;
10582;SDS011;33679;51.218;6.786;2024-01-11T14:40:11;26.97;;;12.70;;
10582;SDS011;33679;51.218;6.786;2024-01-11T14:42:47;27.53;;;12.10;;
10582;SDS011;33679;51.218;6.786;2024-01-11T14:45:21;28.97;;;12.73;;
10582;SDS011;33679;51.218;6.786;2024-01-11T14:47:57;21.77;;;12.73;;
10582;SDS011;33679;51.218;6.786;2024-01-11T14:50:29;29.10;;;13.70;;
10582;SDS011;33679;51.218;6.786;2024-01-11T14:53:02;29.97;;;13.97;;
10582;SDS011;33679;51.218;6.786;2024-01-11T14:55:36;27.20;;;12.87;;
10582;SDS011;33679;51.218;6.786;2024-01-11T14:58:12;21.63;;;11.77;;
10582;SDS011;33679;51.218;6.786;2024-01-11T15:00:44;24.73;;;12.80;;
10582;SDS011;33679;51.218;6.786;2024-01-11T15:03:18;29.13;;;13.70;;
10582;SDS011;33679;51.218;6.786;2024-01-11T15:05:51;23.13;;;12.87;;
10582;SDS011;33679;51.218;6.786;2024-01-11T15:08:27;30.83;;;14.47;;
10582;SDS011;33679;51.218;6.786;2024-01-11T15:11:01;27.40;;;11.93;;
10582;SDS011;33679;51.218;6.786;2024-01-11T15:13:37;20.90;;;11.20;;
10582;SDS011;33679;51.218;6.786;2024-01-11T15:16:09;24.00;;;13.03;;
10582;SDS011;33679;51.218;6.786;2024-01-11T15:18:42;23.37;;;11.00;;
10582;SDS011;33679;51.218;6.786;2024-01-11T15:21:16;25.97;;;11.80;;
10582;SDS011;33679;51.218;6.786;2024-01-11T15:23:48;21.93;;;12.23;;
10582;SDS011;33679;51.218;6.786;2024-01-11T15:26:26;23.10;;;11.50;;
10582;SDS011;33679;51.218;6.786;2024-01-11T15:29:05;26.03;;;12.70;;
10582;SDS011;33679;51.218;6.786;2024-01-11T15:31:38;22.43;;;12.03;;
10582;SDS011;33679;51.218;6.786;2024-01-11T15:34:16;20.27;;;10.90;;
10582;SDS011;33679;51.218;6.786;2024-01-11T15:36:50;25.10;;;11.63;;
10582;SDS011;33679;51.218;6.786;2024-01-11T15:39:26;22.90;;;12.77;;
10582;SDS011;33679;51.218;6.786;2024-01-11T15:42:04;31.50;;;10.87;;
10582;SDS011;33679;51.218;6.786;2024-01-11T15:44:40;19.70;;;11.73;;
10582;SDS011;33679;51.218;6.786;2024-01-11T15:47:14;21.70;;;11.67;;
10582;SDS011;33679;51.218;6.786;2024-01-11T15:49:47;23.50;;;11.70;;
10582;SDS011;33679;51.218;6.786;2024-01-11T15:52:22;26.40;;;12.00;;
10582;SDS011;33679;51.218;6.786;2024-01-11T15:54:58;19.93;;;11.67;;
10582;SDS011;33679;51.218;6.786;2024-01-11T15:57:31;22.60;;;11.80;;
10582;SDS011;33679;51.218;6.786;2024-01-11T16:00:13;23.27;;;11.60;;
10582;SDS011;33679;51.218;6.786;2024-01-11T16:02:49;20.47;;;11.10;;
10582;SDS011;33679;51.218;6.786;2024-01-11T16:05:25;18.70;;;10.93;;
10582;SDS011;33679;51.218;6.786;2024-01-11T16:08:17;30.73;;;17.17;;
10582;SDS011;33679;51.218;6.786;2024-01-11T16:10:53;20.40;;;11.17;;
10582;SDS011;33679;51.218;6.786;2024-01-11T16:13:34;19.03;;;10.20;;
10582;SDS011;33679;51.218;6.786;2024-01-11T16:16:11;19.80;;;10.93;;
10582;SDS011;33679;51.218;6.786;2024-01-11T16:18:56;21.80;;;11.07;;
10582;SDS011;33679;51.218;6.786;2024-01-11T16:21:31;19.20;;;10.13;;
10582;SDS011;33679;51.218;6.786;2024-01-11T16:27:20;23.10;;;10.90;;
10582;SDS011;33679;51.218;6.786;2024-01-11T16:29:53;20.43;;;10.07;;
10582;SDS011;33679;51.218;6.786;2024-01-11T16:32:33;24.27;;;10.73;;
10582;SDS011;33679;51.218;6.786;2024-01-11T16:35:07;18.60;;;9.47;;
10582;SDS011;33679;51.218;6.786;2024-01-11T16:37:40;17.80;;;9.17;;
10582;SDS011;33679;51.218;6.786;2024-01-11T16:40:14;17.20;;;9.07;;
10582;SDS011;33679;51.218;6.786;2024-01-11T16:42:47;15.90;;;9.50;;
10582;SDS011;33679;51.218;6.786;2024-01-11T16:45:19;30.23;;;14.73;;
10582;SDS011;33679;51.218;6.786;2024-01-11T16:47:54;20.80;;;11.20;;
10582;SDS011;33679;51.218;6.786;2024-01-11T16:50:27;23.60;;;9.47;;
10582;SDS011;33679;51.218;6.786;2024-01-11T16:53:03;19.97;;;10.77;;
10582;SDS011;33679;51.218;6.786;2024-01-11T16:55:35;16.23;;;9.27;;
10582;SDS011;33679;51.218;6.786;2024-01-11T16:58:11;15.07;;;8.67;;
10582;SDS011;33679;51.218;6.786;2024-01-11T17:00:45;16.40;;;9.53;;
10582;SDS011;33679;51.218;6.786;2024-01-11T17:03:20;19.10;;;9.30;;
10582;SDS011;33679;51.218;6.786;2024-01-11T17:05:55;15.40;;;7.83;;
10582;SDS011;33679;51.218;6.786;2024-01-11T17:08:29;14.63;;;8.37;;
10582;SDS011;33679;51.218;6.786;2024-01-11T17:11:05;19.73;;;9.60;;
10582;SDS011;33679;51.218;6.786;2024-01-11T17:13:38;17.40;;;9.20;;
10582;SDS011;33679;51.218;6.786;2024-01-11T17:16:15;20.40;;;9.13;;
10582;SDS011;33679;51.218;6.786;2024-01-11T17:18:56;15.03;;;8.30;;
10582;SDS011;33679;51.218;6.786;2024-01-11T17:21:29;14.77;;;8.00;;
10582;SDS011;33679;51.218;6.786;2024-01-11T17:24:13;19.57;;;9.63;;
10582;SDS011;33679;51.218;6.786;2024-01-11T17:26:45;20.20;;;9.80;;
10582;SDS011;33679;51.218;6.786;2024-01-11T17:29:25;17.13;;;9.03;;
10582;SDS011;33679;51.218;6.786;2024-01-11T17:32:02;18.30;;;9.03;;
10582;SDS011;33679;51.218;6.786;2024-01-11T17:34:40;15.83;;;8.50;;
10582;SDS011;33679;51.218;6.786;2024-01-11T17:40:06;13.17;;;7.67;;
10582;SDS011;33679;51.218;6.786;2024-01-11T17:43:34;16.00;;;8.33;;
10582;SDS011;33679;51.218;6.786;2024-01-11T17:45:57;15.27;;;9.07;;
10582;SDS011;33679;51.218;6.786;2024-01-11T17:48:30;16.73;;;8.57;;
10582;SDS011;33679;51.218;6.786;2024-01-11T17:51:05;15.10;;;8.67;;
10582;SDS011;33679;51.218;6.786;2024-01-11T17:53:42;13.47;;;8.07;;
10582;SDS011;33679;51.218;6.786;2024-01-11T17:56:26;16.33;;;8.13;;
10582;SDS011;33679;51.218;6.786;2024-01-11T17:59:03;15.83;;;8.40;;
10582;SDS011;33679;51.218;6.786;2024-01-11T18:01:56;20.47;;;9.53;;
10582;SDS011;33679;51.218;6.786;2024-01-11T18:04:33;13.80;;;9.43;;
10582;SDS011;33679;51.218;6.786;2024-01-11T18:07:06;13.10;;;8.33;;
10582;SDS011;33679;51.218;6.786;2024-01-11T18:09:41;14.30;;;8.67;;
10582;SDS011;33679;51.218;6.786;2024-01-11T18:12:27;26.37;;;14.50;;
10582;SDS011;33679;51.218;6.786;2024-01-11T18:15:04;17.23;;;9.10;;
10582;SDS011;33679;51.218;6.786;2024-01-11T18:17:43;17.00;;;9.17;;
10582;SDS011;33679;51.218;6.786;2024-01-11T18:20:19;15.73;;;8.60;;
10582;SDS011;33679;51.218;6.786;2024-01-11T18:22:56;12.93;;;8.57;;
10582;SDS011;33679;51.218;6.786;2024-01-11T18:25:31;15.63;;;8.80;;
10582;SDS011;33679;51.218;6.786;2024-01-11T18:28:07;13.93;;;7.97;;
10582;SDS011;33679;51.218;6.786;2024-01-11T18:30:44;16.73;;;9.70;;
10582;SDS011;33679;51.218;6.786;2024-01-11T18:33:18;16.73;;;9.47;;
10582;SDS011;33679;51.218;6.786;2024-01-11T18:35:53;14.93;;;9.00;;
10582;SDS011;33679;51.218;6.786;2024-01-11T18:38:31;15.00;;;9.33;;
10582;SDS011;33679;51.218;6.786;2024-01-11T18:41:05;17.60;;;9.60;;
10582;SDS011;33679;51.218;6.786;2024-01-11T18:43:38;13.60;;;8.27;;
10582;SDS011;33679;51.218;6.786;2024-01-11T18:46:11;16.07;;;9.37;;
10582;SDS011;33679;51.218;6.786;2024-01-11T18:48:44;19.03;;;8.90;;
10582;SDS011;33679;51.218;6.786;2024-01-11T18:51:20;15.30;;;8.27;;
10582;SDS011;33679;51.218;6.786;2024-01-11T18:53:55;17.73;;;9.43;;
10582;SDS011;33679;51.218;6.786;2024-01-11T18:56:29;19.20;;;9.03;;
10582;SDS011;33679;51.218;6.786;2024-01-11T18:59:02;19.97;;;10.10;;